sensor_id;sensor_type;location;lat;lon;timestamp;temperature;humidity
9977;DHT22;5029;47.378;11.776;2022-07-29T00:04:02;15.60;99.90
9977;DHT22;5029;47.378;11.776;2022-07-29T00:09:06;15.40;99.90
9977;DHT22;5029;47.378;11.776;2022-07-29T00:14:10;15.40;99.90
9977;DHT22;5029;47.378;11.776;2022-07-29T00:19:15;15.70;99.90
9977;DHT22;5029;47.378;11.776;2022-07-29T00:24:19;15.60;99.90
9977;DHT22;5029;47.378;11.776;2022-07-29T00:29:22;15.50;99.90
9977;DHT22;5029;47.378;11.776;2022-07-29T00:34:36;15.40;99.90
9977;DHT22;5029;47.378;11.776;2022-07-29T00:39:57;15.20;99.90
9977;DHT22;5029;47.378;11.776;2022-07-29T00:45:01;15.60;99.90
9977;DHT22;5029;47.378;11.776;2022-07-29T00:50:07;15.60;99.90
9977;DHT22;5029;47.378;11.776;2022-07-29T00:55:13;15.70;99.90
9977;DHT22;5029;47.378;11.776;2022-07-29T01:00:20;15.50;99.90
9977;DHT22;5029;47.378;11.776;2022-07-29T01:05:27;15.20;99.90
9977;DHT22;5029;47.378;11.776;2022-07-29T01:10:51;15.10;99.90
9977;DHT22;5029;47.378;11.776;2022-07-29T01:16:06;15.00;99.90
9977;DHT22;5029;47.378;11.776;2022-07-29T01:21:33;15.00;99.90
9977;DHT22;5029;47.378;11.776;2022-07-29T01:26:46;15.10;99.90
9977;DHT22;5029;47.378;11.776;2022-07-29T01:31:56;15.00;99.90
9977;DHT22;5029;47.378;11.776;2022-07-29T01:37:08;15.00;99.90
9977;DHT22;5029;47.378;11.776;2022-07-29T01:42:22;15.10;99.90
9977;DHT22;5029;47.378;11.776;2022-07-29T01:47:34;14.90;99.90
9977;DHT22;5029;47.378;11.776;2022-07-29T01:52:44;15.00;99.90
9977;DHT22;5029;47.378;11.776;2022-07-29T01:57:49;15.30;99.90
9977;DHT22;5029;47.378;11.776;2022-07-29T02:02:55;15.00;99.90
9977;DHT22;5029;47.378;11.776;2022-07-29T02:08:00;14.50;99.90
9977;DHT22;5029;47.378;11.776;2022-07-29T02:13:05;14.50;99.90
9977;DHT22;5029;47.378;11.776;2022-07-29T02:18:15;14.60;99.90
9977;DHT22;5029;47.378;11.776;2022-07-29T02:23:21;14.40;99.90
9977;DHT22;5029;47.378;11.776;2022-07-29T02:28:27;14.40;99.90
9977;DHT22;5029;47.378;11.776;2022-07-29T02:33:34;14.60;99.90
9977;DHT22;5029;47.378;11.776;2022-07-29T02:38:39;14.70;99.90
9977;DHT22;5029;47.378;11.776;2022-07-29T02:44:05;14.50;99.90
9977;DHT22;5029;47.378;11.776;2022-07-29T02:49:15;14.40;99.90
9977;DHT22;5029;47.378;11.776;2022-07-29T02:54:24;14.40;99.90
9977;DHT22;5029;47.378;11.776;2022-07-29T02:59:30;14.20;99.90
9977;DHT22;5029;47.378;11.776;2022-07-29T03:04:40;14.30;99.90
9977;DHT22;5029;47.378;11.776;2022-07-29T03:09:45;14.60;99.90
9977;DHT22;5029;47.378;11.776;2022-07-29T03:14:49;14.60;99.90
9977;DHT22;5029;47.378;11.776;2022-07-29T03:19:54;14.90;99.90
9977;DHT22;5029;47.378;11.776;2022-07-29T03:25:07;14.70;99.90
9977;DHT22;5029;47.378;11.776;2022-07-29T03:30:12;14.90;99.90
9977;DHT22;5029;47.378;11.776;2022-07-29T03:35:23;14.80;99.90
9977;DHT22;5029;47.378;11.776;2022-07-29T03:40:30;14.70;99.90
9977;DHT22;5029;47.378;11.776;2022-07-29T03:45:35;14.50;99.90
9977;DHT22;5029;47.378;11.776;2022-07-29T03:50:40;14.30;99.90
9977;DHT22;5029;47.378;11.776;2022-07-29T03:55:47;14.40;99.90
9977;DHT22;5029;47.378;11.776;2022-07-29T04:00:52;14.50;99.90
9977;DHT22;5029;47.378;11.776;2022-07-29T04:06:04;14.40;99.90
9977;DHT22;5029;47.378;11.776;2022-07-29T04:11:10;14.50;99.90
9977;DHT22;5029;47.378;11.776;2022-07-29T04:16:13;14.50;99.90
9977;DHT22;5029;47.378;11.776;2022-07-29T04:21:18;14.50;99.90
9977;DHT22;5029;47.378;11.776;2022-07-29T04:26:22;14.20;99.90
9977;DHT22;5029;47.378;11.776;2022-07-29T04:31:25;14.10;99.90
9977;DHT22;5029;47.378;11.776;2022-07-29T04:36:30;14.30;99.90
9977;DHT22;5029;47.378;11.776;2022-07-29T04:41:33;14.60;99.90
9977;DHT22;5029;47.378;11.776;2022-07-29T04:46:37;14.80;99.90
9977;DHT22;5029;47.378;11.776;2022-07-29T04:51:42;14.90;99.90
9977;DHT22;5029;47.378;11.776;2022-07-29T04:56:46;15.00;99.90
9977;DHT22;5029;47.378;11.776;2022-07-29T05:01:49;14.90;99.90
9977;DHT22;5029;47.378;11.776;2022-07-29T05:06:54;14.80;99.90
9977;DHT22;5029;47.378;11.776;2022-07-29T05:11:58;14.80;99.90
9977;DHT22;5029;47.378;11.776;2022-07-29T05:17:01;14.90;99.90
9977;DHT22;5029;47.378;11.776;2022-07-29T05:22:06;15.00;99.90
9977;DHT22;5029;47.378;11.776;2022-07-29T05:27:10;15.00;99.90
9977;DHT22;5029;47.378;11.776;2022-07-29T05:32:13;15.10;99.90
9977;DHT22;5029;47.378;11.776;2022-07-29T05:37:18;15.10;99.90
9977;DHT22;5029;47.378;11.776;2022-07-29T05:42:22;15.10;99.90
9977;DHT22;5029;47.378;11.776;2022-07-29T05:47:25;15.00;99.90
9977;DHT22;5029;47.378;11.776;2022-07-29T05:52:30;15.10;99.90
9977;DHT22;5029;47.378;11.776;2022-07-29T05:57:33;15.30;99.90
9977;DHT22;5029;47.378;11.776;2022-07-29T06:02:37;15.20;99.90
9977;DHT22;5029;47.378;11.776;2022-07-29T06:07:42;15.30;99.90
9977;DHT22;5029;47.378;11.776;2022-07-29T06:12:52;15.50;99.90
9977;DHT22;5029;47.378;11.776;2022-07-29T06:17:55;15.40;99.90
9977;DHT22;5029;47.378;11.776;2022-07-29T06:23:03;15.80;99.90
9977;DHT22;5029;47.378;11.776;2022-07-29T06:28:06;15.90;99.90
9977;DHT22;5029;47.378;11.776;2022-07-29T06:33:16;16.10;99.90
9977;DHT22;5029;47.378;11.776;2022-07-29T06:38:22;16.20;99.90
9977;DHT22;5029;47.378;11.776;2022-07-29T06:43:36;16.20;99.90
9977;DHT22;5029;47.378;11.776;2022-07-29T06:48:52;16.10;99.90
9977;DHT22;5029;47.378;11.776;2022-07-29T06:53:58;16.20;99.90
9977;DHT22;5029;47.378;11.776;2022-07-29T06:59:04;16.30;99.90
9977;DHT22;5029;47.378;11.776;2022-07-29T07:04:09;16.40;99.90
9977;DHT22;5029;47.378;11.776;2022-07-29T07:09:14;16.70;99.90
9977;DHT22;5029;47.378;11.776;2022-07-29T07:14:17;17.20;99.90
9977;DHT22;5029;47.378;11.776;2022-07-29T07:19:22;17.30;99.90
9977;DHT22;5029;47.378;11.776;2022-07-29T07:24:27;17.40;99.90
9977;DHT22;5029;47.378;11.776;2022-07-29T07:29:31;17.50;99.90
9977;DHT22;5029;47.378;11.776;2022-07-29T07:34:35;17.70;99.90
9977;DHT22;5029;47.378;11.776;2022-07-29T07:39:41;17.30;99.90
9977;DHT22;5029;47.378;11.776;2022-07-29T07:44:45;17.30;99.90
9977;DHT22;5029;47.378;11.776;2022-07-29T07:50:11;17.20;99.90
9977;DHT22;5029;47.378;11.776;2022-07-29T07:55:21;17.30;99.90
9977;DHT22;5029;47.378;11.776;2022-07-29T08:00:25;18.10;99.90
9977;DHT22;5029;47.378;11.776;2022-07-29T08:05:28;18.10;99.90
9977;DHT22;5029;47.378;11.776;2022-07-29T08:10:34;18.30;99.90
9977;DHT22;5029;47.378;11.776;2022-07-29T08:15:56;18.60;99.90
9977;DHT22;5029;47.378;11.776;2022-07-29T08:21:02;19.00;99.90
9977;DHT22;5029;47.378;11.776;2022-07-29T08:26:08;19.00;99.90
9977;DHT22;5029;47.378;11.776;2022-07-29T08:31:12;19.30;99.90
9977;DHT22;5029;47.378;11.776;2022-07-29T08:36:16;19.90;99.90
9977;DHT22;5029;47.378;11.776;2022-07-29T08:41:21;20.30;99.90
9977;DHT22;5029;47.378;11.776;2022-07-29T08:46:25;20.30;99.90
9977;DHT22;5029;47.378;11.776;2022-07-29T08:51:28;19.90;99.90
9977;DHT22;5029;47.378;11.776;2022-07-29T08:56:35;20.00;99.90
9977;DHT22;5029;47.378;11.776;2022-07-29T09:01:39;19.90;99.90
9977;DHT22;5029;47.378;11.776;2022-07-29T09:06:49;20.00;99.90
9977;DHT22;5029;47.378;11.776;2022-07-29T09:11:55;20.90;99.90
9977;DHT22;5029;47.378;11.776;2022-07-29T09:17:00;20.60;99.90
9977;DHT22;5029;47.378;11.776;2022-07-29T09:22:05;20.80;99.90
9977;DHT22;5029;47.378;11.776;2022-07-29T09:27:20;20.70;99.90
9977;DHT22;5029;47.378;11.776;2022-07-29T09:32:24;21.30;99.90
9977;DHT22;5029;47.378;11.776;2022-07-29T09:37:28;21.20;99.90
9977;DHT22;5029;47.378;11.776;2022-07-29T09:42:33;21.20;99.90
9977;DHT22;5029;47.378;11.776;2022-07-29T09:47:47;21.10;99.90
9977;DHT22;5029;47.378;11.776;2022-07-29T09:52:52;22.40;99.90
9977;DHT22;5029;47.378;11.776;2022-07-29T09:58:15;22.50;99.90
9977;DHT22;5029;47.378;11.776;2022-07-29T10:03:19;22.30;99.90
9977;DHT22;5029;47.378;11.776;2022-07-29T10:08:25;22.50;99.90
9977;DHT22;5029;47.378;11.776;2022-07-29T10:13:30;22.90;99.90
9977;DHT22;5029;47.378;11.776;2022-07-29T10:18:34;22.90;99.90
9977;DHT22;5029;47.378;11.776;2022-07-29T10:23:38;22.90;99.90
9977;DHT22;5029;47.378;11.776;2022-07-29T10:28:49;22.90;99.90
9977;DHT22;5029;47.378;11.776;2022-07-29T10:34:03;23.50;99.90
9977;DHT22;5029;47.378;11.776;2022-07-29T10:39:15;23.10;99.90
9977;DHT22;5029;47.378;11.776;2022-07-29T10:44:25;23.40;99.90
9977;DHT22;5029;47.378;11.776;2022-07-29T10:49:30;24.00;99.90
9977;DHT22;5029;47.378;11.776;2022-07-29T10:54:51;24.00;1.00
9977;DHT22;5029;47.378;11.776;2022-07-29T11:00:26;24.00;1.00
9977;DHT22;5029;47.378;11.776;2022-07-29T11:05:54;23.40;1.00
9977;DHT22;5029;47.378;11.776;2022-07-29T11:17:07;24.00;99.90
9977;DHT22;5029;47.378;11.776;2022-07-29T11:22:31;24.60;99.90
9977;DHT22;5029;47.378;11.776;2022-07-29T11:27:35;24.60;1.00
9977;DHT22;5029;47.378;11.776;2022-07-29T11:32:44;24.30;99.90
9977;DHT22;5029;47.378;11.776;2022-07-29T11:38:27;23.70;99.90
9977;DHT22;5029;47.378;11.776;2022-07-29T11:43:46;25.40;99.90
9977;DHT22;5029;47.378;11.776;2022-07-29T11:49:11;25.00;99.90
9977;DHT22;5029;47.378;11.776;2022-07-29T11:54:23;25.20;99.90
9977;DHT22;5029;47.378;11.776;2022-07-29T11:59:28;25.80;99.90
9977;DHT22;5029;47.378;11.776;2022-07-29T12:04:48;26.00;1.00
9977;DHT22;5029;47.378;11.776;2022-07-29T12:09:53;25.50;1.00
9977;DHT22;5029;47.378;11.776;2022-07-29T12:14:58;25.60;99.90
9977;DHT22;5029;47.378;11.776;2022-07-29T12:20:05;26.00;1.00
9977;DHT22;5029;47.378;11.776;2022-07-29T12:25:10;25.70;99.90
9977;DHT22;5029;47.378;11.776;2022-07-29T12:30:42;25.70;99.90
9977;DHT22;5029;47.378;11.776;2022-07-29T12:35:51;26.00;1.00
9977;DHT22;5029;47.378;11.776;2022-07-29T12:41:08;26.00;99.90
9977;DHT22;5029;47.378;11.776;2022-07-29T12:46:13;25.40;99.90
9977;DHT22;5029;47.378;11.776;2022-07-29T12:51:28;24.90;99.90
9977;DHT22;5029;47.378;11.776;2022-07-29T12:56:31;25.90;99.90
9977;DHT22;5029;47.378;11.776;2022-07-29T13:01:45;25.10;99.90
9977;DHT22;5029;47.378;11.776;2022-07-29T13:06:58;24.80;99.90
9977;DHT22;5029;47.378;11.776;2022-07-29T13:12:07;25.90;1.00
9977;DHT22;5029;47.378;11.776;2022-07-29T13:17:14;25.30;1.00
9977;DHT22;5029;47.378;11.776;2022-07-29T13:22:21;25.80;1.00
9977;DHT22;5029;47.378;11.776;2022-07-29T13:27:27;26.60;1.00
9977;DHT22;5029;47.378;11.776;2022-07-29T13:32:31;26.90;1.00
9977;DHT22;5029;47.378;11.776;2022-07-29T13:37:37;27.10;1.00
9977;DHT22;5029;47.378;11.776;2022-07-29T13:42:41;27.00;1.00
9977;DHT22;5029;47.378;11.776;2022-07-29T13:47:45;25.70;1.00
9977;DHT22;5029;47.378;11.776;2022-07-29T13:52:51;25.40;1.00
9977;DHT22;5029;47.378;11.776;2022-07-29T13:57:55;25.20;1.00
9977;DHT22;5029;47.378;11.776;2022-07-29T14:02:59;24.80;1.00
9977;DHT22;5029;47.378;11.776;2022-07-29T14:08:04;24.60;1.00
9977;DHT22;5029;47.378;11.776;2022-07-29T14:13:08;24.70;1.00
9977;DHT22;5029;47.378;11.776;2022-07-29T14:18:27;24.80;1.00
9977;DHT22;5029;47.378;11.776;2022-07-29T14:23:40;24.50;99.90
9977;DHT22;5029;47.378;11.776;2022-07-29T14:29:08;24.30;99.90
9977;DHT22;5029;47.378;11.776;2022-07-29T14:34:11;24.10;99.90
9977;DHT22;5029;47.378;11.776;2022-07-29T14:39:18;24.10;99.90
9977;DHT22;5029;47.378;11.776;2022-07-29T14:44:22;23.80;99.90
9977;DHT22;5029;47.378;11.776;2022-07-29T14:49:26;23.50;99.90
9977;DHT22;5029;47.378;11.776;2022-07-29T14:54:31;22.90;99.90
9977;DHT22;5029;47.378;11.776;2022-07-29T14:59:34;22.50;99.90
9977;DHT22;5029;47.378;11.776;2022-07-29T15:04:38;22.30;99.90
9977;DHT22;5029;47.378;11.776;2022-07-29T15:09:43;22.30;99.90
9977;DHT22;5029;47.378;11.776;2022-07-29T15:14:50;22.40;99.90
9977;DHT22;5029;47.378;11.776;2022-07-29T15:19:54;22.70;99.90
9977;DHT22;5029;47.378;11.776;2022-07-29T15:24:59;22.30;99.90
9977;DHT22;5029;47.378;11.776;2022-07-29T15:30:03;20.80;99.90
9977;DHT22;5029;47.378;11.776;2022-07-29T15:35:07;18.90;99.90
9977;DHT22;5029;47.378;11.776;2022-07-29T15:40:13;18.30;99.90
9977;DHT22;5029;47.378;11.776;2022-07-29T15:45:17;17.70;99.90
9977;DHT22;5029;47.378;11.776;2022-07-29T15:50:21;18.50;99.90
9977;DHT22;5029;47.378;11.776;2022-07-29T15:55:27;18.40;99.90
9977;DHT22;5029;47.378;11.776;2022-07-29T16:00:34;18.20;99.90
9977;DHT22;5029;47.378;11.776;2022-07-29T16:05:39;18.00;99.90
9977;DHT22;5029;47.378;11.776;2022-07-29T16:10:44;18.20;99.90
9977;DHT22;5029;47.378;11.776;2022-07-29T16:15:48;18.00;99.90
9977;DHT22;5029;47.378;11.776;2022-07-29T16:21:03;17.70;99.90
9977;DHT22;5029;47.378;11.776;2022-07-29T16:26:09;17.40;99.90
9977;DHT22;5029;47.378;11.776;2022-07-29T16:31:12;17.20;99.90
9977;DHT22;5029;47.378;11.776;2022-07-29T16:36:16;17.10;99.90
9977;DHT22;5029;47.378;11.776;2022-07-29T16:41:21;17.00;99.90
9977;DHT22;5029;47.378;11.776;2022-07-29T16:46:25;16.90;99.90
9977;DHT22;5029;47.378;11.776;2022-07-29T16:51:28;17.20;99.90
9977;DHT22;5029;47.378;11.776;2022-07-29T16:56:33;17.50;99.90
9977;DHT22;5029;47.378;11.776;2022-07-29T17:01:37;17.60;99.90
9977;DHT22;5029;47.378;11.776;2022-07-29T17:06:41;17.10;99.90
9977;DHT22;5029;47.378;11.776;2022-07-29T17:11:46;17.70;99.90
9977;DHT22;5029;47.378;11.776;2022-07-29T17:16:57;16.80;99.90
9977;DHT22;5029;47.378;11.776;2022-07-29T17:22:04;16.60;99.90
9977;DHT22;5029;47.378;11.776;2022-07-29T17:27:20;16.10;99.90
9977;DHT22;5029;47.378;11.776;2022-07-29T17:32:24;16.40;99.90
9977;DHT22;5029;47.378;11.776;2022-07-29T17:37:27;15.90;99.90
9977;DHT22;5029;47.378;11.776;2022-07-29T17:42:32;15.70;99.90
9977;DHT22;5029;47.378;11.776;2022-07-29T17:47:36;16.40;99.90
9977;DHT22;5029;47.378;11.776;2022-07-29T17:52:39;16.20;99.90
9977;DHT22;5029;47.378;11.776;2022-07-29T17:57:44;16.50;99.90
9977;DHT22;5029;47.378;11.776;2022-07-29T18:02:51;15.70;99.90
9977;DHT22;5029;47.378;11.776;2022-07-29T18:07:55;15.80;99.90
9977;DHT22;5029;47.378;11.776;2022-07-29T18:13:01;15.90;99.90
9977;DHT22;5029;47.378;11.776;2022-07-29T18:18:05;15.70;99.90
9977;DHT22;5029;47.378;11.776;2022-07-29T18:23:12;15.90;99.90
9977;DHT22;5029;47.378;11.776;2022-07-29T18:28:18;15.90;99.90
9977;DHT22;5029;47.378;11.776;2022-07-29T18:33:24;16.10;99.90
9977;DHT22;5029;47.378;11.776;2022-07-29T18:38:28;16.00;99.90
9977;DHT22;5029;47.378;11.776;2022-07-29T18:43:33;16.20;99.90
9977;DHT22;5029;47.378;11.776;2022-07-29T18:48:38;15.90;99.90
9977;DHT22;5029;47.378;11.776;2022-07-29T18:53:48;15.80;99.90
9977;DHT22;5029;47.378;11.776;2022-07-29T18:59:19;16.10;99.90
9977;DHT22;5029;47.378;11.776;2022-07-29T19:04:26;15.80;99.90
9977;DHT22;5029;47.378;11.776;2022-07-29T19:09:33;15.80;99.90
9977;DHT22;5029;47.378;11.776;2022-07-29T19:15:09;15.90;99.90
9977;DHT22;5029;47.378;11.776;2022-07-29T19:20:20;15.90;99.90
9977;DHT22;5029;47.378;11.776;2022-07-29T19:25:24;15.90;99.90
9977;DHT22;5029;47.378;11.776;2022-07-29T19:30:29;16.00;99.90
9977;DHT22;5029;47.378;11.776;2022-07-29T19:35:40;15.90;99.90
9977;DHT22;5029;47.378;11.776;2022-07-29T19:40:58;15.80;99.90
9977;DHT22;5029;47.378;11.776;2022-07-29T19:46:10;15.70;99.90
9977;DHT22;5029;47.378;11.776;2022-07-29T19:51:14;15.90;99.90
9977;DHT22;5029;47.378;11.776;2022-07-29T19:56:17;15.80;99.90
9977;DHT22;5029;47.378;11.776;2022-07-29T20:01:23;15.90;99.90
9977;DHT22;5029;47.378;11.776;2022-07-29T20:06:26;16.30;99.90
9977;DHT22;5029;47.378;11.776;2022-07-29T20:11:30;16.10;99.90
9977;DHT22;5029;47.378;11.776;2022-07-29T20:16:42;15.90;99.90
9977;DHT22;5029;47.378;11.776;2022-07-29T20:21:46;15.90;99.90
9977;DHT22;5029;47.378;11.776;2022-07-29T20:26:50;16.00;99.90
9977;DHT22;5029;47.378;11.776;2022-07-29T20:31:55;15.70;99.90
9977;DHT22;5029;47.378;11.776;2022-07-29T20:36:59;15.60;99.90
9977;DHT22;5029;47.378;11.776;2022-07-29T20:42:04;15.50;99.90
9977;DHT22;5029;47.378;11.776;2022-07-29T20:47:09;15.40;99.90
9977;DHT22;5029;47.378;11.776;2022-07-29T20:52:13;15.30;99.90
9977;DHT22;5029;47.378;11.776;2022-07-29T20:57:17;15.40;99.90
9977;DHT22;5029;47.378;11.776;2022-07-29T21:02:44;15.50;99.90
9977;DHT22;5029;47.378;11.776;2022-07-29T21:07:52;15.30;99.90
9977;DHT22;5029;47.378;11.776;2022-07-29T21:13:00;15.60;99.90
9977;DHT22;5029;47.378;11.776;2022-07-29T21:18:06;15.10;99.90
9977;DHT22;5029;47.378;11.776;2022-07-29T21:23:27;15.40;99.90
9977;DHT22;5029;47.378;11.776;2022-07-29T21:28:32;15.40;99.90
9977;DHT22;5029;47.378;11.776;2022-07-29T21:33:43;15.30;99.90
9977;DHT22;5029;47.378;11.776;2022-07-29T21:38:47;15.20;99.90
9977;DHT22;5029;47.378;11.776;2022-07-29T21:43:51;15.30;99.90
9977;DHT22;5029;47.378;11.776;2022-07-29T21:49:03;15.10;99.90
9977;DHT22;5029;47.378;11.776;2022-07-29T21:54:07;15.10;99.90
9977;DHT22;5029;47.378;11.776;2022-07-29T21:59:13;15.10;99.90
9977;DHT22;5029;47.378;11.776;2022-07-29T22:04:19;15.20;99.90
9977;DHT22;5029;47.378;11.776;2022-07-29T22:09:23;14.90;99.90
9977;DHT22;5029;47.378;11.776;2022-07-29T22:14:26;14.80;99.90
9977;DHT22;5029;47.378;11.776;2022-07-29T22:19:32;14.80;99.90
9977;DHT22;5029;47.378;11.776;2022-07-29T22:24:35;14.70;99.90
9977;DHT22;5029;47.378;11.776;2022-07-29T22:29:39;14.80;99.90
9977;DHT22;5029;47.378;11.776;2022-07-29T22:34:44;15.00;99.90
9977;DHT22;5029;47.378;11.776;2022-07-29T22:39:48;15.30;99.90
9977;DHT22;5029;47.378;11.776;2022-07-29T22:44:51;14.90;99.90
9977;DHT22;5029;47.378;11.776;2022-07-29T22:49:56;15.30;99.90
9977;DHT22;5029;47.378;11.776;2022-07-29T22:54:59;15.10;99.90
9977;DHT22;5029;47.378;11.776;2022-07-29T23:00:06;14.70;99.90
9977;DHT22;5029;47.378;11.776;2022-07-29T23:05:42;14.50;99.90
9977;DHT22;5029;47.378;11.776;2022-07-29T23:10:45;14.40;99.90
9977;DHT22;5029;47.378;11.776;2022-07-29T23:15:49;14.50;99.90
9977;DHT22;5029;47.378;11.776;2022-07-29T23:20:54;14.40;99.90
9977;DHT22;5029;47.378;11.776;2022-07-29T23:25:57;14.40;99.90
9977;DHT22;5029;47.378;11.776;2022-07-29T23:31:01;14.80;99.90
9977;DHT22;5029;47.378;11.776;2022-07-29T23:36:06;14.70;99.90
9977;DHT22;5029;47.378;11.776;2022-07-29T23:41:10;14.70;99.90
9977;DHT22;5029;47.378;11.776;2022-07-29T23:46:13;14.80;99.90
9977;DHT22;5029;47.378;11.776;2022-07-29T23:51:26;15.10;99.90
9977;DHT22;5029;47.378;11.776;2022-07-29T23:56:30;15.40;99.90
